Time;durP1;ratioP1;P1;durP2;ratioP2;P2;SDS_P1;SDS_P2;PMS_P1;PMS_P2;Temp;Humidity;BMP_temperature;BMP_pressure;BME280_temperature;BME280_humidity;BME280_pressure;Samples;Min_cycle;Max_cycle;Signal;HPM_P1;HPM_P2
2024/01/06 00:00:22;;;;;;;4.07;1.80;;;;;;;12.08;48.68;98760.13;4933849;29;20051;-79
2024/01/06 00:02:48;;;;;;;3.20;1.67;;;;;;;12.08;48.73;98759.25;4918518;29;20398;-79
2024/01/06 00:05:14;;;;;;;4.18;1.63;;;;;;;12.10;48.54;98776.50;4917981;29;20032;-79
2024/01/06 00:07:39;;;;;;;4.10;1.60;;;;;;;12.06;48.79;98767.25;4934053;29;20031;-80
2024/01/06 00:10:06;;;;;;;3.50;1.77;;;;;;;12.08;48.84;98773.19;4934311;29;20031;-78
2024/01/06 00:12:31;;;;;;;9.40;2.30;;;;;;;12.13;48.43;98772.81;4901886;29;20067;-79
2024/01/06 00:14:57;;;;;;;3.92;1.50;;;;;;;12.08;48.57;98760.13;4917674;29;20078;-80
2024/01/06 00:17:22;;;;;;;3.92;2.00;;;;;;;12.13;48.80;98752.72;4917925;29;20420;-79
2024/01/06 00:19:51;;;;;;;4.28;1.55;;;;;;;12.15;48.62;98754.38;4902341;29;20027;-79
2024/01/06 00:22:17;;;;;;;2.83;1.38;;;;;;;12.10;48.57;98742.50;4934009;29;20042;-78
2024/01/06 00:24:43;;;;;;;4.13;1.90;;;;;;;12.13;48.68;98752.72;4917427;29;20139;-80
2024/01/06 00:27:08;;;;;;;3.17;1.70;;;;;;;12.09;48.46;98740.81;4917858;29;20035;-80
2024/01/06 00:29:34;;;;;;;3.47;1.95;;;;;;;12.15;48.59;98757.00;4934074;29;20063;-80
2024/01/06 00:31:59;;;;;;;3.83;1.80;;;;;;;12.12;48.40;98751.03;4917995;29;20036;-79
2024/01/06 00:34:25;;;;;;;4.15;1.75;;;;;;;12.12;48.39;98750.22;4933361;29;20135;-80
2024/01/06 00:36:50;;;;;;;3.28;1.65;;;;;;;12.07;48.50;98727.06;4918067;29;20032;-79
2024/01/06 00:39:16;;;;;;;5.00;1.88;;;;;;;12.12;48.49;98751.03;4917421;29;20483;-79
2024/01/06 00:41:41;;;;;;;4.07;1.77;;;;;;;12.06;48.69;98737.63;4902374;29;20066;-80
2024/01/06 00:44:07;;;;;;;5.20;1.75;;;;;;;12.10;48.39;98737.25;4933419;29;20510;-80
2024/01/06 00:46:32;;;;;;;3.40;1.75;;;;;;;12.11;48.82;98743.31;4902168;29;20040;-80
2024/01/06 00:48:58;;;;;;;3.85;1.73;;;;;;;12.09;48.90;98738.22;4918026;29;20032;-79
2024/01/06 00:51:23;;;;;;;6.03;2.78;;;;;;;12.05;48.69;98736.81;4937476;29;20038;-79
2024/01/06 00:53:49;;;;;;;4.47;1.90;;;;;;;12.03;48.61;98733.47;4937418;29;20032;-85
2024/01/06 00:56:14;;;;;;;4.03;1.60;;;;;;;12.03;48.86;98725.63;4921804;29;20427;-85
2024/01/06 00:58:40;;;;;;;3.67;1.65;;;;;;;12.06;48.94;98714.91;4921594;29;20043;-85
2024/01/06 01:01:05;;;;;;;7.03;1.73;;;;;;;12.02;48.90;98710.91;4921220;29;20071;-84
2024/01/06 01:03:31;;;;;;;3.45;1.50;;;;;;;12.05;48.68;98717.66;4921045;29;20046;-86
2024/01/06 01:05:56;;;;;;;4.40;1.40;;;;;;;12.05;48.70;98726.34;4921312;29;20042;-86
2024/01/06 01:08:22;;;;;;;5.45;2.00;;;;;;;12.02;49.14;98723.13;4921180;29;20074;-85
2024/01/06 01:10:47;;;;;;;4.30;1.75;;;;;;;11.96;48.85;98721.88;4921461;29;20094;-84
2024/01/06 01:13:13;;;;;;;5.10;1.70;;;;;;;12.02;49.15;98733.59;4921480;29;20036;-83
2024/01/06 01:15:38;;;;;;;3.60;1.73;;;;;;;11.96;48.82;98728.91;4906750;29;20036;-84
2024/01/06 01:18:04;;;;;;;4.20;1.73;;;;;;;11.97;48.86;98728.78;4938517;29;20377;-84
2024/01/06 01:20:29;;;;;;;4.00;1.73;;;;;;;12.00;49.15;98723.28;4939172;29;20119;-85
2024/01/06 01:22:55;;;;;;;4.75;1.67;;;;;;;11.98;49.10;98714.72;4920469;29;20050;-86
2024/01/06 01:25:20;;;;;;;2.95;1.88;;;;;;;11.94;48.94;98706.31;4936673;29;20059;-85
2024/01/06 01:27:46;;;;;;;3.22;1.90;;;;;;;11.98;49.22;98711.28;4921182;29;20471;-85
2024/01/06 01:30:11;;;;;;;3.50;1.67;;;;;;;11.97;49.14;98714.84;4920701;29;20055;-84
2024/01/06 01:32:37;;;;;;;2.60;1.50;;;;;;;11.96;48.93;98707.97;4920127;29;20036;-85
2024/01/06 01:35:03;;;;;;;4.80;1.90;;;;;;;11.90;49.11;98704.03;4938084;29;20089;-85
2024/01/06 01:37:28;;;;;;;3.70;1.70;;;;;;;11.91;49.23;98703.91;4936512;29;20031;-84
2024/01/06 01:39:54;;;;;;;4.07;1.55;;;;;;;11.89;49.24;98702.38;4920479;29;20055;-84
2024/01/06 01:42:19;;;;;;;4.10;1.48;;;;;;;11.90;49.04;98709.28;4936783;29;20027;-84
2024/01/06 01:44:45;;;;;;;2.70;1.52;;;;;;;11.90;49.06;98704.03;4936363;29;20377;-84
2024/01/06 01:47:10;;;;;;;2.50;1.38;;;;;;;11.89;49.26;98691.91;4920580;29;20035;-86
2024/01/06 01:49:36;;;;;;;3.72;1.50;;;;;;;11.87;49.16;98689.41;4936477;29;20039;-86
2024/01/06 01:52:01;;;;;;;5.53;1.88;;;;;;;11.86;49.07;98684.31;4936272;29;20042;-85
2024/01/06 01:54:27;;;;;;;3.97;1.67;;;;;;;11.84;49.34;98681.81;4920841;29;20067;-85
2024/01/06 01:56:52;;;;;;;2.33;1.40;;;;;;;11.80;49.33;98667.34;4936430;29;20038;-85
2024/01/06 01:59:19;;;;;;;2.75;1.50;;;;;;;11.83;49.42;98676.72;4936284;29;20479;-84
2024/01/06 02:01:45;;;;;;;3.70;1.48;;;;;;;11.82;49.25;98677.69;4935261;29;20049;-85
2024/01/06 02:04:10;;;;;;;3.25;1.60;;;;;;;11.76;49.25;98666.78;4936101;29;20617;-84
2024/01/06 02:06:36;;;;;;;4.47;1.60;;;;;;;11.74;49.28;98655.59;4920187;29;20031;-84
2024/01/06 02:09:01;;;;;;;3.13;1.70;;;;;;;11.75;49.27;98670.34;4936628;29;20035;-85
2024/01/06 02:11:27;;;;;;;3.78;1.42;;;;;;;11.74;49.34;98671.28;4904414;29;20554;-85
2024/01/06 02:13:52;;;;;;;4.05;1.38;;;;;;;11.73;49.42;98655.72;4936195;29;20040;-86
2024/01/06 02:16:18;;;;;;;2.30;1.17;;;;;;;11.67;49.84;98646.63;4919385;29;20090;-84
2024/01/06 02:18:43;;;;;;;2.83;1.40;;;;;;;11.64;49.73;98646.88;4919597;29;20508;-84
2024/01/06 02:21:09;;;;;;;4.55;1.55;;;;;;;11.64;49.62;98643.41;4919874;29;20035;-84
2024/01/06 02:23:35;;;;;;;2.53;1.27;;;;;;;11.63;49.36;98639.16;4935508;29;20510;-84
2024/01/06 02:26:01;;;;;;;3.92;1.58;;;;;;;11.62;49.66;98648.75;4935474;29;20032;-85
2024/01/06 02:28:26;;;;;;;2.78;1.33;;;;;;;11.54;49.89;98638.97;4904137;29;20480;-85
2024/01/06 02:30:52;;;;;;;2.70;1.38;;;;;;;11.53;49.89;98633.84;4919828;29;20031;-85
2024/01/06 02:33:19;;;;;;;3.10;1.40;;;;;;;11.57;49.71;98643.09;4919929;29;20063;-85
2024/01/06 02:35:45;;;;;;;2.20;1.10;;;;;;;11.52;50.02;98638.22;4920012;29;20495;-85
2024/01/06 02:38:11;;;;;;;3.80;1.30;;;;;;;11.52;49.92;98650.47;4920076;29;20067;-85
2024/01/06 02:40:36;;;;;;;2.92;1.30;;;;;;;11.50;50.03;98647.16;4919512;29;20134;-83
2024/01/06 02:43:02;;;;;;;3.15;1.63;;;;;;;11.44;50.17;98638.03;4919699;29;20122;-84
2024/01/06 02:45:27;;;;;;;4.45;1.40;;;;;;;11.44;50.03;98631.97;4919128;29;20035;-84
2024/01/06 02:47:53;;;;;;;3.45;1.30;;;;;;;11.41;50.27;98633.06;4919180;29;20043;-84
2024/01/06 02:50:18;;;;;;;3.55;1.50;;;;;;;11.47;50.21;98644.81;4935168;29;20506;-83
2024/01/06 02:52:45;;;;;;;6.03;1.70;;;;;;;11.46;50.32;98640.53;4919179;29;20082;-84
2024/01/06 02:55:10;;;;;;;2.63;1.40;;;;;;;11.41;50.27;98639.09;4919743;29;20480;-83
2024/01/06 02:57:37;;;;;;;3.33;1.20;;;;;;;11.41;50.47;98640.91;4935107;29;20107;-83
2024/01/06 03:00:03;;;;;;;3.35;1.20;;;;;;;11.45;50.24;98646.69;4919185;29;20050;-85
2024/01/06 03:02:28;;;;;;;4.50;1.42;;;;;;;11.44;50.45;98630.19;4934771;29;20476;-83
2024/01/06 03:04:54;;;;;;;2.47;1.33;;;;;;;11.41;50.36;98635.66;4934713;29;20026;-84
2024/01/06 03:07:20;;;;;;;4.63;1.50;;;;;;;11.42;50.17;98632.09;4919209;29;20051;-86
2024/01/06 03:09:46;;;;;;;2.75;1.20;;;;;;;11.60;58.32;98645.44;4911119;29;20035;-79
2024/01/06 03:12:12;;;;;;;2.30;1.20;;;;;;;11.70;57.95;98656.81;4934866;29;20122;-85
2024/01/06 03:14:37;;;;;;;4.82;1.40;;;;;;;11.64;56.51;98646.88;4936672;29;20028;-84
2024/01/06 03:17:03;;;;;;;5.90;1.45;;;;;;;11.61;55.93;98647.13;4921856;29;20411;-86
2024/01/06 03:19:30;;;;;;;2.63;1.10;;;;;;;11.62;55.40;98653.16;4937857;29;20509;-83
2024/01/06 03:21:55;;;;;;;2.70;1.30;;;;;;;11.62;54.70;98647.94;4921439;29;20054;-84
2024/01/06 03:24:21;;;;;;;4.38;1.38;;;;;;;11.62;54.56;98647.94;4906230;29;20050;-90
2024/01/06 03:26:47;;;;;;;4.00;1.50;;;;;;;11.59;53.94;98644.63;4906583;29;20130;-86
2024/01/06 03:29:12;;;;;;;5.10;1.50;;;;;;;11.57;53.71;98635.25;4906150;29;20038;-86
2024/01/06 03:31:38;;;;;;;4.60;1.27;;;;;;;11.58;53.40;98635.13;4905857;29;20085;-84
2024/01/06 03:34:03;;;;;;;3.33;1.42;;;;;;;11.56;53.47;98628.38;4921778;29;20035;-86
2024/01/06 03:36:29;;;;;;;3.20;1.30;;;;;;;11.55;53.23;98634.53;4920539;29;20023;-86
2024/01/06 03:38:54;;;;;;;4.75;1.50;;;;;;;11.48;52.96;98612.47;4915527;29;20046;-86
2024/01/06 03:41:20;;;;;;;2.33;1.10;;;;;;;11.46;52.94;98615.19;4920826;29;20054;-86
2024/01/06 03:43:45;;;;;;;2.33;1.05;;;;;;;11.47;53.01;98623.91;4921767;29;20043;-86
2024/01/06 03:46:11;;;;;;;3.53;1.20;;;;;;;11.47;52.73;98632.56;4921520;29;20027;-87
2024/01/06 03:48:36;;;;;;;2.13;1.13;;;;;;;11.40;52.73;98619.16;4921894;29;20039;-87
2024/01/06 03:51:29;;;;;;;;;;;;;;;;;;;;;
2024/01/06 03:53:55;;;;;;;2.80;1.30;;;;;;;11.38;52.35;98620.22;4953671;29;20401;-85
2024/01/06 03:56:20;;;;;;;4.30;1.40;;;;;;;11.40;52.68;98627.00;4921493;29;20118;-86
2024/01/06 03:58:46;;;;;;;2.38;1.02;;;;;;;11.38;52.74;98625.47;4953352;29;20039;-86
2024/01/06 04:01:11;;;;;;;3.72;1.30;;;;;;;11.36;52.50;98620.34;4921475;29;20065;-87
2024/01/06 04:03:40;;;;;;;3.22;1.30;;;;;;;11.35;52.60;98623.09;4921621;29;20406;-87
2024/01/06 04:06:05;;;;;;;1.85;1.20;;;;;;;11.29;52.19;98621.81;4937952;29;20031;-87
2024/01/06 04:08:31;;;;;;;2.55;1.10;;;;;;;11.27;52.41;98636.78;4937715;29;20036;-87
2024/01/06 04:10:56;;;;;;;3.55;1.40;;;;;;;11.24;52.34;98634.41;4921159;29;20039;-86
2024/01/06 04:13:24;;;;;;;3.08;1.30;;;;;;;11.21;52.61;98629.44;4937586;29;20032;-85
2024/01/06 04:15:53;;;;;;;6.57;1.20;;;;;;;11.14;52.39;98626.50;4954754;29;20027;-87
2024/01/06 04:18:18;;;;;;;1.92;1.30;;;;;;;11.11;52.64;98620.69;4937467;29;20039;-87
2024/01/06 04:20:44;;;;;;;2.35;1.40;;;;;;;11.13;52.38;98630.06;4937312;29;20491;-87
2024/01/06 04:23:09;;;;;;;3.05;1.25;;;;;;;11.11;52.42;98628.53;4953409;29;20027;-86
2024/01/06 04:25:35;;;;;;;3.35;1.35;;;;;;;11.09;52.41;98623.44;4924356;29;20110;-87
2024/01/06 04:28:00;;;;;;;1.83;1.00;;;;;;;11.07;52.41;98617.50;4925355;29;20573;-86
2024/01/06 04:30:26;;;;;;;4.35;1.50;;;;;;;11.04;52.63;98618.56;4924629;29;20062;-87
2024/01/06 04:32:51;;;;;;;2.55;1.33;;;;;;;11.04;52.65;98622.97;4929121;29;20049;-87
2024/01/06 04:35:17;;;;;;;3.40;1.38;;;;;;;10.97;52.34;98622.59;4941457;29;20202;-86
2024/01/06 04:37:42;;;;;;;4.03;1.48;;;;;;;10.99;52.88;98630.31;4941837;29;20027;-87
2024/01/06 04:40:08;;;;;;;4.25;1.30;;;;;;;10.97;52.74;98638.28;4941847;29;20034;-87
2024/01/06 04:42:34;;;;;;;2.58;1.20;;;;;;;10.94;52.71;98628.09;4941274;29;20031;-85
2024/01/06 04:44:59;;;;;;;4.05;1.38;;;;;;;10.92;52.83;98629.16;4957827;29;20030;-86
2024/01/06 04:47:25;;;;;;;2.38;1.30;;;;;;;10.90;52.71;98625.84;4940752;29;20531;-87
2024/01/06 04:49:50;;;;;;;2.95;1.08;;;;;;;10.92;52.63;98644.84;4956816;29;20031;-86
2024/01/06 04:52:16;;;;;;;2.95;1.20;;;;;;;10.90;52.68;98657.19;4924779;29;20035;-86
2024/01/06 04:54:41;;;;;;;4.53;1.60;;;;;;;10.93;52.62;98636.06;4925121;29;20039;-85
2024/01/06 04:57:07;;;;;;;2.55;1.23;;;;;;;10.93;52.66;98636.06;4941200;29;20479;-86
2024/01/06 04:59:32;;;;;;;4.18;1.35;;;;;;;10.93;52.74;98646.50;4924645;29;20039;-86
2024/01/06 05:01:58;;;;;;;5.18;1.70;;;;;;;10.94;52.73;98643.78;4924886;29;20704;-85
2024/01/06 05:04:24;;;;;;;3.47;1.40;;;;;;;10.88;52.92;98632.97;4940908;29;20588;-86
2024/01/06 05:06:51;;;;;;;5.80;1.73;;;;;;;10.93;52.67;98634.28;4956567;29;20039;-86
2024/01/06 05:09:16;;;;;;;1.92;1.30;;;;;;;10.93;52.69;98641.28;4923968;29;20043;-85
2024/01/06 05:11:43;;;;;;;2.90;1.52;;;;;;;10.88;52.90;98632.97;4940923;29;20412;-85
2024/01/06 05:14:09;;;;;;;4.63;1.45;;;;;;;10.86;52.77;98639.16;4924611;29;20403;-89
2024/01/06 05:16:34;;;;;;;2.97;1.55;;;;;;;10.91;52.69;98645.78;4927169;29;20071;-86
2024/01/06 05:19:00;;;;;;;4.97;1.70;;;;;;;10.88;52.94;98643.41;4924778;29;20039;-85
2024/01/06 05:21:25;;;;;;;2.50;1.42;;;;;;;10.88;52.67;98643.41;4927348;29;20487;-88
2024/01/06 05:23:51;;;;;;;2.58;1.50;;;;;;;10.85;52.94;98645.31;4921544;29;20044;-87
2024/01/06 05:26:17;;;;;;;4.22;1.67;;;;;;;10.84;52.96;98640.22;4924514;29;20067;-85
2024/01/06 05:28:42;;;;;;;3.67;1.80;;;;;;;10.78;52.87;98620.63;4906281;29;20040;-87
2024/01/06 05:31:08;;;;;;;3.28;1.60;;;;;;;10.81;53.05;98635.22;4921445;29;20036;-82
2024/01/06 05:33:33;;;;;;;3.53;1.55;;;;;;;10.79;52.91;98631.91;4938605;29;20028;-83
2024/01/06 05:35:59;;;;;;;4.30;1.65;;;;;;;10.78;53.12;98638.91;4921291;29;20502;-84
2024/01/06 05:38:24;;;;;;;10.25;1.85;;;;;;;10.73;52.99;98635.00;4921221;29;20032;-85
2024/01/06 05:40:50;;;;;;;7.80;1.67;;;;;;;10.76;53.13;98645.22;4905155;29;20467;-84
2024/01/06 05:43:15;;;;;;;2.75;1.58;;;;;;;10.75;53.25;98644.38;4920849;29;20052;-82
2024/01/06 05:45:44;;;;;;;5.00;2.05;;;;;;;10.68;53.16;98636.19;4936878;29;20407;-83
2024/01/06 05:48:10;;;;;;;8.30;1.58;;;;;;;10.73;53.35;98648.06;4905401;29;20044;-83
2024/01/06 05:50:39;;;;;;;5.93;1.50;;;;;;;10.68;53.42;98640.59;4905125;29;20031;-84
2024/01/06 05:53:05;;;;;;;4.13;1.58;;;;;;;10.73;53.40;98650.69;4920858;29;20126;-83
2024/01/06 05:55:30;;;;;;;2.63;1.48;;;;;;;10.70;53.31;98651.72;4921132;29;20040;-83
2024/01/06 05:57:56;;;;;;;4.25;1.90;;;;;;;10.74;53.37;98655.78;4936293;29;20047;-82
2024/01/06 06:00:22;;;;;;;3.95;1.60;;;;;;;10.76;53.17;98653.88;4920469;29;20099;-83
2024/01/06 06:02:47;;;;;;;3.22;1.95;;;;;;;10.82;53.05;98657.78;4920425;29;20035;-83
2024/01/06 06:05:13;;;;;;;2.63;1.60;;;;;;;10.94;53.10;98651.59;4920516;29;20027;-84
2024/01/06 06:07:39;;;;;;;3.33;1.80;;;;;;;11.26;52.25;98647.34;4920403;29;20463;-85
2024/01/06 06:10:09;;;;;;;3.72;1.83;;;;;;;11.79;51.07;98663.06;4920130;29;20036;-83
2024/01/06 06:12:34;;;;;;;4.00;1.95;;;;;;;12.23;50.12;98648.09;4904398;29;20102;-83
2024/01/06 06:15:00;;;;;;;3.47;1.65;;;;;;;12.31;49.87;98644.81;4905203;29;20027;-82
2024/01/06 06:17:26;;;;;;;2.90;1.70;;;;;;;12.36;49.92;98649.69;4935994;29;20493;-83
2024/01/06 06:19:51;;;;;;;6.07;1.73;;;;;;;12.52;49.34;98647.41;4937314;29;20110;-83
2024/01/06 06:22:17;;;;;;;4.88;1.48;;;;;;;13.08;48.52;98650.44;4901013;29;20063;-83
2024/01/06 06:24:42;;;;;;;3.78;1.70;;;;;;;13.32;47.74;98647.47;4928659;29;20051;-82
2024/01/06 06:27:08;;;;;;;3.00;1.60;;;;;;;13.16;47.87;98637.53;4923096;29;20076;-83
2024/01/06 06:29:34;;;;;;;2.95;1.73;;;;;;;13.65;46.90;98643.63;4955797;29;20118;-83
2024/01/06 06:32:00;;;;;;;2.53;1.45;;;;;;;14.01;46.12;98643.03;4939009;29;20032;-84
2024/01/06 06:34:25;;;;;;;2.63;1.70;;;;;;;13.65;46.51;98645.44;4938940;29;20048;-84
2024/01/06 06:36:50;;;;;;;4.43;2.03;;;;;;;13.52;47.08;98645.69;4922815;29;20043;-82
2024/01/06 06:39:16;;;;;;;6.07;2.10;;;;;;;13.39;47.62;98645.97;4956093;29;20406;-82
2024/01/06 06:41:41;;;;;;;5.43;1.60;;;;;;;13.27;47.56;98647.06;4922806;29;20062;-78
2024/01/06 06:44:07;;;;;;;2.97;1.60;;;;;;;13.14;48.10;98642.91;4938684;29;20039;-79
2024/01/06 06:46:32;;;;;;;4.28;1.60;;;;;;;13.06;47.99;98642.72;4921951;28;20035;-79
2024/01/06 06:48:58;;;;;;;5.80;1.92;;;;;;;12.94;48.24;98636.78;4938591;29;20042;-78
2024/01/06 06:51:26;;;;;;;2.40;1.38;;;;;;;12.86;48.56;98628.78;4938897;29;20483;-78
2024/01/06 06:53:52;;;;;;;3.38;1.63;;;;;;;12.79;48.71;98633.72;4939073;29;20045;-77
2024/01/06 06:56:17;;;;;;;5.47;1.75;;;;;;;12.80;48.71;98631.94;4922417;29;20047;-79
2024/01/06 06:58:43;;;;;;;3.97;1.55;;;;;;;12.77;48.70;98629.56;4938186;29;20047;-78
2024/01/06 07:01:08;;;;;;;2.92;1.40;;;;;;;12.87;48.63;98632.22;4938154;29;20035;-79
2024/01/06 07:03:34;;;;;;;3.28;1.60;;;;;;;12.93;48.72;98634.31;4938169;29;20036;-77
2024/01/06 07:05:59;;;;;;;9.70;2.10;;;;;;;12.84;48.80;98628.09;4922218;29;20081;-77
2024/01/06 07:08:25;;;;;;;5.13;1.83;;;;;;;12.83;48.86;98634.28;4922215;29;20035;-77
2024/01/06 07:10:50;;;;;;;2.45;1.48;;;;;;;12.85;49.12;98633.16;4937821;29;20035;-78
2024/01/06 07:13:16;;;;;;;6.13;2.38;;;;;;;13.48;48.36;98629.41;4895905;29;20044;-77
2024/01/06 07:15:41;;;;;;;2.88;1.67;;;;;;;13.94;48.07;98627.84;4934819;29;20115;-78
2024/01/06 07:18:07;;;;;;;6.45;1.80;;;;;;;14.20;50.29;98614.13;4910082;29;20055;-84
2024/01/06 07:20:33;;;;;;;15.05;1.42;;;;;;;14.71;55.57;98621.69;4940229;29;20036;-86
2024/01/06 07:22:58;;;;;;;11.23;1.42;;;;;;;14.88;55.05;98620.91;4923729;29;20051;-86
2024/01/06 07:25:24;;;;;;;5.43;1.20;;;;;;;14.91;53.32;98618.00;4937153;29;20423;-83
2024/01/06 07:27:49;;;;;;;8.07;1.70;;;;;;;14.83;52.57;98613.47;4940594;29;20031;-89
2024/01/06 07:30:15;;;;;;;6.97;1.83;;;;;;;14.67;52.27;98604.56;4905250;29;20054;-87
2024/01/06 07:32:40;;;;;;;14.75;1.88;;;;;;;14.57;51.98;98604.59;4935714;29;20512;-84
2024/01/06 07:35:06;;;;;;;5.90;1.90;;;;;;;14.45;51.95;98617.06;4907394;29;20041;-85
2024/01/06 07:37:32;;;;;;;4.28;1.80;;;;;;;14.32;52.02;98620.00;4920186;29;20044;-87
2024/01/06 07:39:57;;;;;;;5.25;2.17;;;;;;;14.21;52.00;98614.94;4920221;29;20035;-88
2024/01/06 07:42:23;;;;;;;3.97;1.95;;;;;;;14.11;52.08;98617.59;4911903;29;20043;-85
2024/01/06 07:44:49;;;;;;;8.02;2.45;;;;;;;14.04;51.73;98606.84;4930064;29;20042;-90
2024/01/06 07:47:14;;;;;;;4.97;2.20;;;;;;;13.99;51.99;98595.13;4920441;29;20130;-80
2024/01/06 07:49:40;;;;;;;9.25;2.50;;;;;;;13.97;51.79;98604.94;4934614;29;20036;-81
2024/01/06 07:52:05;;;;;;;6.03;2.28;;;;;;;13.92;51.88;98608.81;4935394;29;20031;-81
2024/01/06 07:54:31;;;;;;;6.90;2.42;;;;;;;13.97;51.84;98624.13;4937195;29;20094;-86
2024/01/06 07:56:56;;;;;;;7.75;1.90;;;;;;;14.12;55.81;98614.00;4950056;29;20039;-87
2024/01/06 07:59:22;;;;;;;5.75;2.17;;;;;;;14.41;55.60;98615.72;4928245;29;20492;-81
2024/01/06 08:01:47;;;;;;;7.00;2.13;;;;;;;14.96;53.95;98613.09;4934376;29;20035;-78
2024/01/06 08:04:13;;;;;;;8.18;2.42;;;;;;;15.67;52.52;98610.59;4935304;29;20043;-75
2024/01/06 08:06:38;;;;;;;4.28;2.00;;;;;;;15.95;53.34;98607.88;4902013;29;20063;-74
2024/01/06 08:09:04;;;;;;;10.63;1.95;;;;;;;15.98;55.06;98603.13;4903017;29;20043;-80
2024/01/06 08:11:30;;;;;;;7.18;2.25;;;;;;;16.10;55.89;98604.53;4934131;29;20122;-77
2024/01/06 08:13:55;;;;;;;7.95;2.50;;;;;;;16.15;54.80;98611.16;4918019;29;20040;-76
2024/01/06 08:16:21;;;;;;;11.15;2.50;;;;;;;16.12;53.49;98591.22;4918091;29;20059;-76
2024/01/06 08:18:46;;;;;;;4.85;2.50;;;;;;;16.15;52.29;98601.44;4918083;29;20038;-74
2024/01/06 08:21:12;;;;;;;6.80;2.70;;;;;;;16.17;51.44;98590.75;4917995;29;20033;-75
2024/01/06 08:23:37;;;;;;;9.55;2.45;;;;;;;16.13;50.72;98578.84;4902031;29;20082;-73
2024/01/06 08:26:03;;;;;;;16.52;2.60;;;;;;;16.09;50.24;98586.25;4933737;29;20074;-72
2024/01/06 08:28:29;;;;;;;4.38;2.30;;;;;;;16.01;51.90;98588.84;4918388;29;20119;-75
2024/01/06 08:30:55;;;;;;;6.38;2.53;;;;;;;15.94;50.97;98585.16;4933703;29;20111;-72
2024/01/06 08:33:21;;;;;;;5.28;2.80;;;;;;;15.91;50.43;98592.41;4933883;29;20094;-76
2024/01/06 08:35:46;;;;;;;9.75;2.42;;;;;;;15.84;50.19;98582.66;4917629;29;20031;-71
2024/01/06 08:38:12;;;;;;;8.30;2.53;;;;;;;15.79;51.55;98591.00;4943965;29;20471;-75
2024/01/06 08:40:37;;;;;;;7.95;3.40;;;;;;;15.76;51.11;98579.94;4905645;28;20042;-77
2024/01/06 08:43:03;;;;;;;6.53;3.65;;;;;;;15.77;50.27;98579.81;4921219;29;20081;-79
2024/01/06 08:45:29;;;;;;;10.80;3.92;;;;;;;15.82;49.97;98579.34;4921337;29;20110;-76
2024/01/06 08:47:54;;;;;;;10.73;4.82;;;;;;;15.87;49.61;98583.16;4921709;29;20042;-74
2024/01/06 08:50:20;;;;;;;13.38;4.82;;;;;;;15.96;49.28;98581.41;4921037;29;20491;-75
